Hlavní strana
METAR-TAF:

METAR-TAF

Letiště :

Samsun, Turecko

zeměpisná šířka: 41-15-15N, zeměpisná délka: 036-34-03E, výška: 5 m

Aktuální stav počasí

Zpráva byla vytvořena před 16 minutami, v 23:50 UTC
vítr z různých směrů 2 kt
Teplota 6°C
Vlhkost vzduchu 100%
Tlak 1019 hPa
Viditelnost 10 km a více
Žádná oblačnost pod 1500 m, nevyskytují se cumulonimby.

METAR: LTFH 212350Z VRB02KT CAVOK 06/06 Q1019 NOSIG

Čas: 03:06 (00:06 UTC)

Předpověď počasí

Zpráva byla vytvořena před 1 hodinou a 26 minutami, v 22:40 UTC
Předpověď platná od 22 v 00 UTC do 22 v 09 UTC
vítr z různých směrů 2 kt
Viditelnost 10 km a více
Žádná oblačnost pod 1500 m, nevyskytují se cumulonimby.

TAF: LTFH 212240Z 2200/2209 VRB02KT CAVOK

Stav a předpovědi počasí z více než 4 000 letišť (zprávy METAR a TAF).

Červené a žluté tečky na mapě představují dostupné meteorologické stanice.

Když kurzor umístíte na tečku, zobrazí se název stanice.

Pak kliknutím zobrazíte stav a předpověď počasí.

Chcete-li změnit mapu, kliknutím na zelené tlačítko se znaménkem +mapu přiblížíte, kliknutím na zelené tlačítko se znaménkem – mapu oddálíte a kliknutím na zelené šipky přejdete na sousední mapy.


METAR-TAF: